createdAt,value
2023-03-07T00:00:19.791Z,9.40
2023-03-07T00:02:52.016Z,9.50
2023-03-07T00:05:19.918Z,9.40
2023-03-07T00:07:47.751Z,9.30
2023-03-07T00:10:15.526Z,9.40
2023-03-07T00:12:43.306Z,9.30
2023-03-07T00:15:11.545Z,9.30
2023-03-07T00:17:39.787Z,9.00
2023-03-07T00:20:08.824Z,8.90
2023-03-07T00:22:37.249Z,8.70
2023-03-07T00:25:05.182Z,8.70
2023-03-07T00:27:34.277Z,8.80
2023-03-07T00:30:04.442Z,9.00
2023-03-07T00:32:32.626Z,8.90
2023-03-07T00:35:01.270Z,8.70
2023-03-07T00:37:30.912Z,8.60
2023-03-07T00:39:59.028Z,8.70
2023-03-07T00:42:26.844Z,8.70
2023-03-07T00:44:54.601Z,8.60
2023-03-07T00:47:22.280Z,8.80
2023-03-07T00:49:50.239Z,9.00
2023-03-07T00:52:17.992Z,8.90
2023-03-07T00:54:45.818Z,8.70
2023-03-07T00:57:13.567Z,8.60
2023-03-07T00:59:41.420Z,8.70
2023-03-07T01:02:09.402Z,8.60
2023-03-07T01:04:37.158Z,8.50
2023-03-07T01:07:04.934Z,8.40
2023-03-07T01:09:33.308Z,8.20
2023-03-07T01:12:01.109Z,8.10
2023-03-07T01:14:29.077Z,8.00
2023-03-07T01:16:57.028Z,7.90
2023-03-07T01:19:25.277Z,7.90
2023-03-07T01:21:55.686Z,7.80
2023-03-07T01:24:23.877Z,7.70
2023-03-07T01:26:51.797Z,7.80
2023-03-07T01:29:19.704Z,7.90
2023-03-07T01:31:47.611Z,7.90
2023-03-07T01:34:15.455Z,8.00
2023-03-07T01:36:43.401Z,8.10
2023-03-07T01:39:14.816Z,8.00
2023-03-07T01:41:53.953Z,7.90
2023-03-07T01:44:26.285Z,7.80
2023-03-07T01:47:01.052Z,7.80
2023-03-07T01:49:46.445Z,7.70
2023-03-07T01:52:34.474Z,7.70
2023-03-07T01:55:16.836Z,7.60
2023-03-07T01:57:48.393Z,7.40
2023-03-07T02:00:25.561Z,7.40
2023-03-07T02:03:06.913Z,7.50
2023-03-07T02:05:48.854Z,7.70
2023-03-07T02:08:18.632Z,7.60
2023-03-07T02:10:47.038Z,7.60
2023-03-07T02:13:15.097Z,7.60
2023-03-07T02:15:43.514Z,7.50
2023-03-07T02:18:16.065Z,7.60
2023-03-07T02:21:05.056Z,7.70
2023-03-07T02:24:01.600Z,7.60
2023-03-07T02:26:32.191Z,7.60
2023-03-07T02:29:02.346Z,7.60
2023-03-07T02:31:31.897Z,7.30
2023-03-07T02:34:00.041Z,7.20
2023-03-07T02:36:33.916Z,7.20
2023-03-07T02:39:24.186Z,7.10
2023-03-07T02:41:56.865Z,7.30
2023-03-07T02:44:32.828Z,7.20
2023-03-07T02:47:00.607Z,7.20
2023-03-07T02:49:29.116Z,7.30
2023-03-07T02:52:00.751Z,7.30
2023-03-07T02:54:29.967Z,7.30
2023-03-07T02:56:58.730Z,7.20
2023-03-07T02:59:26.602Z,7.30
2023-03-07T03:01:54.847Z,7.30
2023-03-07T03:04:22.725Z,7.40
2023-03-07T03:06:50.813Z,7.30
2023-03-07T03:09:18.588Z,7.20
2023-03-07T03:11:46.779Z,7.10
2023-03-07T03:14:15.660Z,6.90
2023-03-07T03:16:43.441Z,6.80
2023-03-07T03:19:11.202Z,6.70
2023-03-07T03:21:39.111Z,6.80
2023-03-07T03:24:08.366Z,6.90
2023-03-07T03:26:38.602Z,6.90
2023-03-07T03:29:07.205Z,6.90
2023-03-07T03:31:35.249Z,7.00
2023-03-07T03:34:05.913Z,6.80
2023-03-07T03:36:34.509Z,6.90
2023-03-07T03:39:11.154Z,7.00
2023-03-07T03:41:45.348Z,7.00
2023-03-07T03:44:13.222Z,7.00
2023-03-07T03:46:41.049Z,7.10
2023-03-07T03:49:11.724Z,7.20
2023-03-07T03:51:39.762Z,7.20
2023-03-07T03:54:07.467Z,7.20
2023-03-07T03:56:36.619Z,7.20
2023-03-07T03:59:04.490Z,7.20
2023-03-07T04:01:32.389Z,7.10
2023-03-07T04:04:00.263Z,7.00
2023-03-07T04:06:34.444Z,7.10
2023-03-07T04:09:04.119Z,7.10
2023-03-07T04:11:32.805Z,6.90
2023-03-07T04:14:00.626Z,6.70
2023-03-07T04:16:29.136Z,6.70
2023-03-07T04:18:57.780Z,6.80
2023-03-07T04:21:25.595Z,6.90
2023-03-07T04:23:58.503Z,6.90
2023-03-07T04:26:30.165Z,6.90
2023-03-07T04:28:58.150Z,6.80
2023-03-07T04:31:42.318Z,6.90
2023-03-07T04:34:11.264Z,6.90
2023-03-07T04:36:39.044Z,6.90
2023-03-07T04:39:06.788Z,6.60
2023-03-07T04:41:35.581Z,6.50
2023-03-07T04:44:18.175Z,6.60
2023-03-07T04:46:46.040Z,6.60
2023-03-07T04:49:13.773Z,6.70
2023-03-07T04:51:43.952Z,6.70
2023-03-07T04:54:13.079Z,6.80
2023-03-07T04:56:41.614Z,6.80
2023-03-07T04:59:11.545Z,6.80
2023-03-07T05:01:39.577Z,6.80
2023-03-07T05:04:07.441Z,6.70
2023-03-07T05:06:35.872Z,6.70
2023-03-07T05:09:05.044Z,6.60
2023-03-07T05:11:33.210Z,6.60
2023-03-07T05:14:01.116Z,6.70
2023-03-07T05:16:28.947Z,6.80
2023-03-07T05:18:56.805Z,6.80
2023-03-07T05:21:24.643Z,6.80
2023-03-07T05:23:52.280Z,6.80
2023-03-07T05:26:20.750Z,6.80
2023-03-07T05:28:48.575Z,6.80
2023-03-07T05:31:18.365Z,6.70
2023-03-07T05:33:46.432Z,6.80
2023-03-07T05:36:15.849Z,6.80
2023-03-07T05:38:44.346Z,6.80
2023-03-07T05:41:13.132Z,6.80
2023-03-07T05:43:41.336Z,6.90
2023-03-07T05:46:09.153Z,6.90
2023-03-07T05:48:36.962Z,6.90
2023-03-07T05:51:04.818Z,6.80
2023-03-07T05:53:33.339Z,6.70
2023-03-07T05:56:01.150Z,6.80
2023-03-07T05:58:29.882Z,6.70
2023-03-07T06:00:57.753Z,6.80
2023-03-07T06:03:26.129Z,6.90
2023-03-07T06:05:53.954Z,6.90
2023-03-07T06:08:21.914Z,7.00
2023-03-07T06:10:51.535Z,6.90
2023-03-07T06:13:22.406Z,6.70
2023-03-07T06:15:51.436Z,6.40
2023-03-07T06:18:21.706Z,6.40
2023-03-07T06:21:03.152Z,6.40
2023-03-07T06:23:36.575Z,6.50
2023-03-07T06:26:08.617Z,6.60
2023-03-07T06:28:37.186Z,6.60
2023-03-07T06:31:12.679Z,6.50
2023-03-07T06:33:40.618Z,6.40
2023-03-07T06:36:14.448Z,6.50
2023-03-07T06:38:44.388Z,6.60
2023-03-07T06:41:13.092Z,6.80
2023-03-07T06:43:41.121Z,6.90
2023-03-07T06:46:09.282Z,6.90
2023-03-07T06:48:40.713Z,6.80
2023-03-07T06:51:13.100Z,6.90
2023-03-07T06:53:43.236Z,7.10
2023-03-07T06:56:10.981Z,7.10
2023-03-07T06:58:40.423Z,7.10
2023-03-07T07:01:17.244Z,7.10
2023-03-07T07:03:47.043Z,7.20
2023-03-07T07:06:15.181Z,7.30
2023-03-07T07:08:42.945Z,7.30
2023-03-07T07:11:11.786Z,7.20
2023-03-07T07:13:39.824Z,7.10
2023-03-07T07:16:09.934Z,7.20
2023-03-07T07:18:39.487Z,7.50
2023-03-07T07:21:09.037Z,7.60
2023-03-07T07:23:37.207Z,7.80
2023-03-07T07:26:06.342Z,7.90
2023-03-07T07:28:34.807Z,8.20
2023-03-07T07:31:04.156Z,8.30
2023-03-07T07:33:32.592Z,8.50
2023-03-07T07:36:00.637Z,8.60
2023-03-07T07:38:29.206Z,8.60
2023-03-07T07:40:57.159Z,8.70
2023-03-07T07:43:25.896Z,8.70
2023-03-07T07:46:09.805Z,8.80
2023-03-07T07:48:37.879Z,8.80
2023-03-07T07:51:05.982Z,8.90
2023-03-07T07:53:37.705Z,9.00
2023-03-07T07:56:09.020Z,9.10
2023-03-07T07:58:37.317Z,9.10
2023-03-07T08:01:20.022Z,9.10
2023-03-07T08:03:48.741Z,9.30
2023-03-07T08:06:22.149Z,9.40
2023-03-07T08:08:50.411Z,9.50
2023-03-07T08:11:19.348Z,9.70
2023-03-07T08:13:47.365Z,9.90
2023-03-07T08:16:18.592Z,10.00
2023-03-07T08:18:54.701Z,10.20
2023-03-07T08:21:24.055Z,10.20
2023-03-07T08:23:53.676Z,10.40
2023-03-07T08:26:21.910Z,10.50
2023-03-07T08:28:49.912Z,10.50
2023-03-07T08:31:24.174Z,10.70
2023-03-07T08:33:52.779Z,10.80
2023-03-07T08:36:21.118Z,10.70
2023-03-07T08:38:51.994Z,10.80
2023-03-07T08:41:22.373Z,10.90
2023-03-07T08:43:50.528Z,11.00
2023-03-07T08:46:18.949Z,11.00
2023-03-07T08:48:47.320Z,10.90
2023-03-07T08:51:17.039Z,10.90
2023-03-07T08:53:46.434Z,11.10
2023-03-07T08:56:16.789Z,11.20
2023-03-07T08:58:45.434Z,11.20
2023-03-07T09:01:13.219Z,11.20
2023-03-07T09:03:42.950Z,11.30
2023-03-07T09:06:17.070Z,11.30
2023-03-07T09:08:45.316Z,11.40
2023-03-07T09:11:13.592Z,11.40
2023-03-07T09:13:51.393Z,11.40
2023-03-07T09:16:21.839Z,11.60
2023-03-07T09:18:50.840Z,11.70
2023-03-07T09:21:18.790Z,11.70
2023-03-07T09:23:48.249Z,11.60
2023-03-07T09:26:16.616Z,11.60
2023-03-07T09:28:44.899Z,11.60
2023-03-07T09:31:14.620Z,11.60
2023-03-07T09:33:43.022Z,11.70
2023-03-07T09:36:13.349Z,11.70
2023-03-07T09:38:41.761Z,11.80
2023-03-07T09:41:18.743Z,11.90
2023-03-07T09:44:00.203Z,12.00
2023-03-07T09:47:19.014Z,12.10
2023-03-07T09:49:48.240Z,12.30
2023-03-07T09:52:38.191Z,12.40
2023-03-07T09:55:13.673Z,12.50
2023-03-07T09:58:07.387Z,12.70
2023-03-07T10:00:42.946Z,12.70
2023-03-07T10:03:21.522Z,12.80
2023-03-07T10:05:51.924Z,13.00
2023-03-07T10:08:32.072Z,13.00
2023-03-07T10:11:09.032Z,13.10
2023-03-07T10:13:46.096Z,13.10
2023-03-07T10:16:40.239Z,13.20
2023-03-07T10:19:20.045Z,13.40
2023-03-07T10:22:10.297Z,13.60
2023-03-07T10:25:23.368Z,13.60
2023-03-07T10:27:55.360Z,13.80
2023-03-07T10:30:23.184Z,13.90
2023-03-07T10:32:55.825Z,13.90
2023-03-07T10:35:31.589Z,13.70
2023-03-07T10:38:09.762Z,13.30
2023-03-07T10:40:54.885Z,13.30
2023-03-07T10:43:27.038Z,13.30
2023-03-07T10:46:28.031Z,13.60
2023-03-07T10:49:13.781Z,13.70
2023-03-07T10:52:03.910Z,14.00
2023-03-07T10:54:34.138Z,14.40
2023-03-07T10:57:14.699Z,14.50
2023-03-07T10:59:44.424Z,14.50
2023-03-07T11:02:31.375Z,14.50
2023-03-07T11:04:59.413Z,14.50
2023-03-07T11:07:35.967Z,14.60
2023-03-07T11:10:35.335Z,14.70
2023-03-07T11:13:32.515Z,14.90
2023-03-07T11:16:20.818Z,14.90
2023-03-07T11:18:49.292Z,14.70
2023-03-07T11:21:33.525Z,14.60
2023-03-07T11:24:25.206Z,14.70
2023-03-07T11:26:58.036Z,15.10
2023-03-07T11:29:28.401Z,15.40
2023-03-07T11:32:05.917Z,15.50
2023-03-07T11:34:55.059Z,15.70
2023-03-07T11:37:35.086Z,15.40
2023-03-07T11:40:20.608Z,15.30
2023-03-07T11:43:00.682Z,15.30
2023-03-07T11:45:41.682Z,15.50
2023-03-07T11:48:37.307Z,15.50
2023-03-07T11:51:14.402Z,15.60
2023-03-07T11:53:49.509Z,15.30
2023-03-07T11:56:25.339Z,15.30
2023-03-07T11:59:08.435Z,15.40
2023-03-07T12:01:45.100Z,15.30
2023-03-07T12:04:37.646Z,15.10
2023-03-07T12:07:23.332Z,15.10
2023-03-07T12:10:18.869Z,15.10
2023-03-07T12:13:05.527Z,15.10
2023-03-07T12:15:40.963Z,15.00
2023-03-07T12:18:44.030Z,15.10
2023-03-07T12:21:20.009Z,15.30
2023-03-07T12:24:03.666Z,15.50
2023-03-07T12:26:46.392Z,15.90
2023-03-07T12:29:23.174Z,16.20
2023-03-07T12:31:59.347Z,16.40
2023-03-07T12:34:38.622Z,16.20
2023-03-07T12:37:12.570Z,16.20
2023-03-07T12:39:56.228Z,16.20
2023-03-07T12:42:39.088Z,16.40
2023-03-07T12:45:11.671Z,16.70
2023-03-07T12:47:45.114Z,16.70
2023-03-07T12:50:34.312Z,16.90
2023-03-07T12:53:43.918Z,16.70
2023-03-07T12:56:49.211Z,16.60
2023-03-07T12:59:19.710Z,16.20
2023-03-07T13:01:53.947Z,16.30
2023-03-07T13:04:35.130Z,16.30
2023-03-07T13:07:16.993Z,15.90
2023-03-07T13:09:50.709Z,16.20
2023-03-07T13:12:32.122Z,16.60
2023-03-07T13:15:31.177Z,17.00
2023-03-07T13:18:00.889Z,17.20
2023-03-07T13:20:28.605Z,17.10
2023-03-07T13:22:59.682Z,17.20
2023-03-07T13:25:27.841Z,17.30
2023-03-07T13:28:02.579Z,17.40
2023-03-07T13:30:31.991Z,17.60
2023-03-07T13:33:01.023Z,17.80
2023-03-07T13:35:29.029Z,17.60
2023-03-07T13:38:04.682Z,17.40
2023-03-07T13:40:35.355Z,17.10
2023-03-07T13:43:05.906Z,17.20
2023-03-07T13:45:39.887Z,17.00
2023-03-07T13:48:35.916Z,17.20
2023-03-07T13:51:09.353Z,17.20
2023-03-07T13:53:45.599Z,17.30
2023-03-07T13:56:16.097Z,17.30
2023-03-07T13:58:49.136Z,17.20
2023-03-07T14:01:34.918Z,16.90
2023-03-07T14:04:39.534Z,16.80
2023-03-07T14:07:29.167Z,16.70
2023-03-07T14:10:23.087Z,16.90
2023-03-07T14:13:24.969Z,16.90
2023-03-07T14:16:11.065Z,16.90
2023-03-07T14:19:00.199Z,16.90
2023-03-07T14:21:49.346Z,16.70
2023-03-07T14:24:59.702Z,16.70
2023-03-07T14:27:28.057Z,16.70
2023-03-07T14:29:57.305Z,16.60
2023-03-07T14:32:31.068Z,16.70
2023-03-07T14:34:59.814Z,16.80
2023-03-07T14:37:30.321Z,16.80
2023-03-07T14:40:22.435Z,16.70
2023-03-07T14:42:50.448Z,16.70
2023-03-07T14:45:54.346Z,16.80
2023-03-07T14:49:01.946Z,16.60
2023-03-07T14:51:30.693Z,16.50
2023-03-07T14:54:05.313Z,16.30
2023-03-07T14:56:34.375Z,16.20
2023-03-07T14:59:03.910Z,16.10
2023-03-07T15:01:37.518Z,16.10
2023-03-07T15:04:24.143Z,16.10
2023-03-07T15:07:05.731Z,16.00
2023-03-07T15:09:35.855Z,16.00
2023-03-07T15:12:25.472Z,15.90
2023-03-07T15:15:01.182Z,15.70
2023-03-07T15:17:42.086Z,15.70
2023-03-07T15:20:23.509Z,15.70
2023-03-07T15:22:59.171Z,15.70
2023-03-07T15:25:27.075Z,15.60
2023-03-07T15:28:00.061Z,15.60
2023-03-07T15:30:38.400Z,15.60
2023-03-07T15:33:12.122Z,15.70
2023-03-07T15:35:40.939Z,15.70
2023-03-07T15:38:23.476Z,15.60
2023-03-07T15:40:52.273Z,15.70
2023-03-07T15:43:25.971Z,15.70
2023-03-07T15:46:08.770Z,15.60
2023-03-07T15:48:43.429Z,15.60
2023-03-07T15:51:24.208Z,15.60
2023-03-07T15:54:04.824Z,15.60
2023-03-07T15:56:37.949Z,15.70
2023-03-07T15:59:17.899Z,15.70
2023-03-07T16:01:46.061Z,15.70
2023-03-07T16:04:46.486Z,15.70
2023-03-07T16:07:18.592Z,15.70
2023-03-07T16:09:46.743Z,15.70
2023-03-07T16:12:17.840Z,15.60
2023-03-07T16:14:48.237Z,15.40
2023-03-07T16:17:31.207Z,15.40
2023-03-07T16:19:59.405Z,15.30
2023-03-07T16:22:27.553Z,15.20
2023-03-07T16:24:55.562Z,15.10
2023-03-07T16:27:26.013Z,15.00
2023-03-07T16:29:54.547Z,14.90
2023-03-07T16:32:23.287Z,14.90
2023-03-07T16:34:51.556Z,14.80
2023-03-07T16:37:20.814Z,14.80
2023-03-07T16:39:48.681Z,14.70
2023-03-07T16:42:22.914Z,14.70
2023-03-07T16:44:52.105Z,14.60
2023-03-07T16:47:19.929Z,14.60
2023-03-07T16:49:47.685Z,14.50
2023-03-07T16:52:15.495Z,14.50
2023-03-07T16:54:43.414Z,14.50
2023-03-07T16:57:16.782Z,14.50
2023-03-07T16:59:47.248Z,14.40
2023-03-07T17:02:21.338Z,14.40
2023-03-07T17:04:49.090Z,14.40
2023-03-07T17:07:22.999Z,14.40
2023-03-07T17:09:51.040Z,14.40
2023-03-07T17:12:22.879Z,14.40
2023-03-07T17:14:50.782Z,14.30
2023-03-07T17:17:22.307Z,14.30
2023-03-07T17:19:50.989Z,14.30
2023-03-07T17:22:20.290Z,14.30
2023-03-07T17:24:48.062Z,14.20
2023-03-07T17:27:16.653Z,14.20
2023-03-07T17:29:50.677Z,14.20
2023-03-07T17:32:18.787Z,14.10
2023-03-07T17:34:47.000Z,14.10
2023-03-07T17:37:14.748Z,14.10
2023-03-07T17:39:43.614Z,14.00
2023-03-07T17:42:11.950Z,14.00
2023-03-07T17:44:39.818Z,13.90
2023-03-07T17:47:07.730Z,13.80
2023-03-07T17:49:37.985Z,13.80
2023-03-07T17:52:07.019Z,13.70
2023-03-07T17:54:35.084Z,13.70
2023-03-07T17:57:03.559Z,13.60
2023-03-07T17:59:33.066Z,13.60
2023-03-07T18:02:01.111Z,13.50
2023-03-07T18:04:31.377Z,13.50
2023-03-07T18:07:00.243Z,13.40
2023-03-07T18:09:27.980Z,13.30
2023-03-07T18:11:55.791Z,13.30
2023-03-07T18:14:23.933Z,13.20
2023-03-07T18:16:51.904Z,13.30
2023-03-07T18:19:26.398Z,13.30
2023-03-07T18:21:55.672Z,13.20
2023-03-07T18:24:28.195Z,13.20
2023-03-07T18:26:59.394Z,13.20
2023-03-07T18:29:28.554Z,13.20
2023-03-07T18:31:56.399Z,13.20
2023-03-07T18:34:25.120Z,13.20
2023-03-07T18:36:54.540Z,13.00
2023-03-07T18:39:23.836Z,13.20
2023-03-07T18:41:51.755Z,13.20
2023-03-07T18:44:19.942Z,12.90
2023-03-07T18:46:47.861Z,12.80
2023-03-07T18:49:16.429Z,12.80
2023-03-07T18:51:46.214Z,12.70
2023-03-07T18:54:14.384Z,12.60
2023-03-07T18:56:44.759Z,12.60
2023-03-07T18:59:12.530Z,12.50
2023-03-07T19:01:40.319Z,12.80
2023-03-07T19:04:09.364Z,12.80
2023-03-07T19:06:42.343Z,12.90
2023-03-07T19:09:16.038Z,12.90
2023-03-07T19:11:43.869Z,12.80
2023-03-07T19:14:12.073Z,12.70
2023-03-07T19:16:40.515Z,12.70
2023-03-07T19:19:08.622Z,12.70
2023-03-07T19:21:36.585Z,12.60
2023-03-07T19:24:06.201Z,12.70
2023-03-07T19:26:34.172Z,12.60
2023-03-07T19:29:04.464Z,12.60
2023-03-07T19:31:33.364Z,12.50
2023-03-07T19:34:05.155Z,12.50
2023-03-07T19:36:35.419Z,12.50
2023-03-07T19:39:05.050Z,12.50
2023-03-07T19:41:33.100Z,12.50
2023-03-07T19:44:01.320Z,12.50
2023-03-07T19:46:29.380Z,12.50
2023-03-07T19:48:57.147Z,12.50
2023-03-07T19:51:26.690Z,12.50
2023-03-07T19:53:57.500Z,12.50
2023-03-07T19:56:28.510Z,12.40
2023-03-07T19:58:57.677Z,12.40
2023-03-07T20:01:26.737Z,12.30
2023-03-07T20:03:54.822Z,12.20
2023-03-07T20:06:27.995Z,12.20
2023-03-07T20:08:56.720Z,12.20
2023-03-07T20:11:27.867Z,12.20
2023-03-07T20:13:57.421Z,12.20
2023-03-07T20:16:29.253Z,12.20
2023-03-07T20:18:59.860Z,12.20
2023-03-07T20:21:28.855Z,12.20
2023-03-07T20:24:00.410Z,12.20
2023-03-07T20:26:34.362Z,12.20
2023-03-07T20:29:04.691Z,12.10
2023-03-07T20:31:33.039Z,12.10
2023-03-07T20:34:01.384Z,12.10
2023-03-07T20:36:31.947Z,12.10
2023-03-07T20:39:07.750Z,12.10
2023-03-07T20:41:36.304Z,12.00
2023-03-07T20:44:06.414Z,11.80
2023-03-07T20:46:35.176Z,11.60
2023-03-07T20:49:03.190Z,11.50
2023-03-07T20:51:33.648Z,11.50
2023-03-07T20:54:10.412Z,11.50
2023-03-07T20:56:39.705Z,11.40
2023-03-07T20:59:08.473Z,11.30
2023-03-07T21:01:36.341Z,11.40
2023-03-07T21:04:08.154Z,11.40
2023-03-07T21:06:37.377Z,11.30
2023-03-07T21:09:08.288Z,11.20
2023-03-07T21:11:40.942Z,11.10
2023-03-07T21:14:08.950Z,11.10
2023-03-07T21:16:37.097Z,11.00
2023-03-07T21:19:07.349Z,11.00
2023-03-07T21:21:36.078Z,11.00
2023-03-07T21:24:04.836Z,11.00
2023-03-07T21:26:36.135Z,10.90
2023-03-07T21:29:04.737Z,10.80
2023-03-07T21:31:34.600Z,10.70
2023-03-07T21:34:07.705Z,10.70
2023-03-07T21:36:35.735Z,10.60
2023-03-07T21:39:05.830Z,10.60
2023-03-07T21:41:34.272Z,10.60
2023-03-07T21:44:02.299Z,10.70
2023-03-07T21:46:30.125Z,10.80
2023-03-07T21:49:01.728Z,10.70
2023-03-07T21:51:30.192Z,10.50
2023-03-07T21:53:58.263Z,10.30
2023-03-07T21:56:26.254Z,10.30
2023-03-07T21:58:54.044Z,10.30
2023-03-07T22:01:26.557Z,10.30
2023-03-07T22:03:56.613Z,10.40
2023-03-07T22:06:25.416Z,10.30
2023-03-07T22:08:53.278Z,10.30
2023-03-07T22:11:21.089Z,10.40
2023-03-07T22:13:49.301Z,10.50
2023-03-07T22:16:20.705Z,10.50
2023-03-07T22:18:56.024Z,10.50
2023-03-07T22:21:27.946Z,10.50
2023-03-07T22:23:58.371Z,10.20
2023-03-07T22:26:27.200Z,10.00
2023-03-07T22:28:55.859Z,10.10
2023-03-07T22:31:23.972Z,10.20
2023-03-07T22:33:51.870Z,10.30
2023-03-07T22:36:19.817Z,10.40
2023-03-07T22:38:47.696Z,10.40
2023-03-07T22:41:17.499Z,10.50
2023-03-07T22:43:45.435Z,10.40
2023-03-07T22:46:13.836Z,10.50
2023-03-07T22:48:42.030Z,10.40
2023-03-07T22:51:19.880Z,10.40
2023-03-07T22:53:47.980Z,10.60
2023-03-07T22:56:18.600Z,10.60
2023-03-07T22:58:46.918Z,10.70
2023-03-07T23:01:17.443Z,10.70
2023-03-07T23:03:45.340Z,10.70
2023-03-07T23:06:13.980Z,10.70
2023-03-07T23:08:45.838Z,10.70
2023-03-07T23:11:14.438Z,10.60
2023-03-07T23:13:42.839Z,10.60
2023-03-07T23:16:25.286Z,10.60
2023-03-07T23:18:55.444Z,10.50
2023-03-07T23:21:26.220Z,10.30
2023-03-07T23:23:54.424Z,10.30
2023-03-07T23:26:25.557Z,10.30
2023-03-07T23:28:53.669Z,10.30
2023-03-07T23:31:33.602Z,10.40
2023-03-07T23:34:04.861Z,10.40
2023-03-07T23:36:33.112Z,10.50
2023-03-07T23:39:01.347Z,10.60
2023-03-07T23:41:29.258Z,10.60
2023-03-07T23:43:59.700Z,10.40
2023-03-07T23:46:29.160Z,10.10
2023-03-07T23:48:57.591Z,10.00
2023-03-07T23:51:25.762Z,9.90
2023-03-07T23:53:53.511Z,9.90
2023-03-07T23:56:21.680Z,10.00
2023-03-07T23:58:53.493Z,10.10
